Stena Suede — ZCEF5 — position and weather

sailwx.info

Track history (hours):
 
Tides and Currents Weather Stations Pressure Air Temp Water Temp Dewpoint Dewpoint Depression Visibility Wind Speed Wind Dir Waves Ship Positions

Stena Suede

Last reported at 2016-Sep-07 07:12 UTC. Time now 2016-Oct-01 05:01 UTC.
Position N 50°19' W 006°37'.
Warning: this ship's position is 23 days out of date.

Length 274 m; draft 9 m.

Type: Tanker. MMSI: 310622000.

Date/timePositionNaut miles runAvg speedWind from/ knotsBaromVisibWave heightAir tempDewpointWater temp
2016-Sep-07 07:12N 50°19' W 006°37'3814.3
2016-Sep-07 04:33N 50°56' W 006°20'1614.9
2016-Sep-07 03:29N 51°11' W 006°13'1514.7
2016-Sep-07 02:26N 51°26' W 006°07'1414.4
2016-Sep-07 01:29N 51°39' W 006°00'1413.6
2016-Sep-07 00:26N 51°53' W 005°53'13014.2
2016-Sep-06 15:20N 53°60' W 005°12'1114.4
2016-Sep-06 14:33N 54°11' W 005°09'1514.6
2016-Sep-06 13:33N 54°25' W 005°07'1515.0
2016-Sep-06 12:33N 54°40' W 005°12'1616.4
2016-Sep-06 11:33N 54°55' W 005°22'1515.2
2016-Sep-06 10:34N 55°11' W 005°20'1514.0
2016-Sep-06 09:30N 55°22' W 005°03'  
2016-Sep-03 19:13N 56°04' W 004°53'710.0
2016-Sep-03 18:32N 55°57' W 004°53'  
2016-Sep-01 13:31N 55°04' W 005°27'1515.7
2016-Sep-01 12:34N 54°50' W 005°19'1514.6
2016-Sep-01 11:33N 54°36' W 005°11'1413.7
2016-Sep-01 10:33N 54°22' W 005°10'1413.7
2016-Sep-01 09:33N 54°08' W 005°12'  
2016-Aug-29 14:17N 40°07' W 011°45'4012.9
2016-Aug-29 11:11N 39°29' W 011°58'1413.4
2016-Aug-29 10:10N 39°15' W 012°02'23013.1
2016-Aug-28 16:34N 35°32' W 013°11'5513.1
2016-Aug-28 12:23N 34°39' W 013°27'1113.2
2016-Aug-28 11:33N 34°28' W 013°30'1513.4
2016-Aug-28 10:27N 34°14' W 013°35'1213.4
2016-Aug-28 09:32N 34°02' W 013°38'  
Track history (hours):
 
Tides and Currents Weather Stations Pressure Air Temp Water Temp Dewpoint Dewpoint Depression Visibility Wind Speed Wind Dir Waves Ship Positions

Stena Suede

Last reported at 2016-Sep-07 07:12 UTC. Time now 2016-Oct-01 05:01 UTC.
Position N 50°19' W 006°37'.
Warning: this ship's position is 23 days out of date.

Length 274 m; draft 9 m.

Type: Tanker. MMSI: 310622000.

Date/timePositionNaut miles runAvg speedWind from/ knotsBaromVisibWave heightAir tempDewpointWater temp
2016-Sep-07 07:12N 50°19' W 006°37'3814.3
2016-Sep-07 04:33N 50°56' W 006°20'1614.9
2016-Sep-07 03:29N 51°11' W 006°13'1514.7
2016-Sep-07 02:26N 51°26' W 006°07'1414.4
2016-Sep-07 01:29N 51°39' W 006°00'1413.6
2016-Sep-07 00:26N 51°53' W 005°53'13014.2
2016-Sep-06 15:20N 53°60' W 005°12'1114.4
2016-Sep-06 14:33N 54°11' W 005°09'1514.6
2016-Sep-06 13:33N 54°25' W 005°07'1515.0
2016-Sep-06 12:33N 54°40' W 005°12'1616.4
2016-Sep-06 11:33N 54°55' W 005°22'1515.2
2016-Sep-06 10:34N 55°11' W 005°20'1514.0
2016-Sep-06 09:30N 55°22' W 005°03'  
2016-Sep-03 19:13N 56°04' W 004°53'710.0
2016-Sep-03 18:32N 55°57' W 004°53'  
2016-Sep-01 13:31N 55°04' W 005°27'1515.7
2016-Sep-01 12:34N 54°50' W 005°19'1514.6
2016-Sep-01 11:33N 54°36' W 005°11'1413.7
2016-Sep-01 10:33N 54°22' W 005°10'1413.7
2016-Sep-01 09:33N 54°08' W 005°12'  
2016-Aug-29 14:17N 40°07' W 011°45'4012.9
2016-Aug-29 11:11N 39°29' W 011°58'1413.4
2016-Aug-29 10:10N 39°15' W 012°02'23013.1
2016-Aug-28 16:34N 35°32' W 013°11'5513.1
2016-Aug-28 12:23N 34°39' W 013°27'1113.2
2016-Aug-28 11:33N 34°28' W 013°30'1513.4
2016-Aug-28 10:27N 34°14' W 013°35'1213.4
2016-Aug-28 09:32N 34°02' W 013°38'  

Dump ship's entire track history